Castro Valley, CA (94546)

4:38 PM PST on February 11, 2016 (GMT -0800)
Proctor | | Change Station
CLOSE
Current Station
Personal Weather Station
Location: Castro Valley, CA
Elevation: 472 ft
Nearby Weather Stations

Elev 472 ft 37.72 °N, 122.07 °W | Updated 46 seconds ago

Partly Cloudy
Partly Cloudy
71.0 °F
Feels Like 77 °F
N
3.0
Wind Variable Wind from NW
Gusts 5.0 mph

Today
High -- | Low -- °F
--% Chance of Precip.
Yesterday
High -- | Low -- °F
Precip. -- in
Pressure 30.14 in
Visibility 10.0 miles
Clouds Clear
Heat Index 77 °F
Dew Point 49 °F
Humidity 45%
Rainfall 0.00 in
Snow Depth Not available.
7:02 AM 5:42 PM
Waxing Crescent, 15% visible
METAR KHWD 112354Z 28007KT 10SM CLR 22/09 A3011 RMK AO2 SLP206 T02170094 10228 20156 55001
Pressure 30.14 in
Visibility 10.0 miles
Clouds Clear
Heat Index 77 °F
Dew Point 49 °F
Humidity 45%
Rainfall 0.00 in
Snow Depth Not available.
7:02 AM 5:42 PM
Waxing Crescent, 15% visible
METAR KHWD 112354Z 28007KT 10SM CLR 22/09 A3011 RMK AO2 SLP206 T02170094 10228 20156 55001

10-Day Weather Forecast

Almanac

Astronomy

Feb. 11, 2016 Rise Set
Actual Time
Civil Twilight
Nautical Twilight
Astronomical Twilight
Moon
Length of Visible Light
Length of Day
Tomorrow will be .
, % of the Moon is Illuminated

Today's Extremes

State Highs State Lows

Community

WunderPhotos

Upload Photos

1,892,194 photos uploaded!

WunderBlog® & News

Nearby

Air Quality

  Air Quality AQ Index Pollutant
Not available.

Snow Depth

Station Depth Elevation

Earthquake Activity

City Distance Mag. Time & Date
Minimum magnitude displayed is 2.5.

Coastal Water Temperatures

Place Temperature

Stations

Nearby Weather Stations

Station Location Temp. Windchill Dew Point Humidity Wind Precip. Elev Updated Type
                   

Watches & Warnings

There are currently no watches in effect.